Time;durP1;ratioP1;P1;durP2;ratioP2;P2;SDS_P1;SDS_P2;PMS_P1;PMS_P2;Temp;Humidity;BMP_temperature;BMP_pressure;BME280_temperature;BME280_humidity;BME280_pressure;Samples;Min_cycle;Max_cycle;Signal;HPM_P1;HPM_P2
2024/01/22 00:00:10;;;;;;;1999.90;999.90;;;3.00;99.90;;;;;;4939251;28;20032;-83
2024/01/22 00:02:36;;;;;;;1999.90;999.90;;;3.00;99.90;;;;;;4938876;29;20063;-83
2024/01/22 00:05:02;;;;;;;1999.90;999.90;;;2.90;99.90;;;;;;4940550;29;20068;-82
2024/01/22 00:07:27;;;;;;;1999.90;999.90;;;2.90;99.90;;;;;;4940153;29;20043;-82
2024/01/22 00:09:53;;;;;;;1999.90;999.90;;;2.80;99.90;;;;;;4940561;29;20044;-82
2024/01/22 00:12:19;;;;;;;1999.90;999.90;;;2.90;99.90;;;;;;4943906;29;20036;-83
2024/01/22 00:14:44;;;;;;;1999.90;999.90;;;2.90;99.90;;;;;;4943599;29;20036;-82
2024/01/22 00:17:10;;;;;;;1999.90;999.90;;;2.90;99.90;;;;;;4939596;29;20127;-83
2024/01/22 00:19:36;;;;;;;1999.90;999.90;;;2.80;99.90;;;;;;4939204;29;20498;-83
2024/01/22 00:22:01;;;;;;;1999.90;999.90;;;2.60;99.90;;;;;;4938824;29;20164;-83
2024/01/22 00:24:27;;;;;;;1999.90;999.90;;;2.50;99.90;;;;;;4939119;29;20073;-83
2024/01/22 00:26:52;;;;;;;1999.90;999.90;;;2.50;99.90;;;;;;4938715;29;20044;-82
2024/01/22 00:29:18;;;;;;;1999.90;999.90;;;2.40;99.90;;;;;;4940629;28;20044;-83
2024/01/22 00:31:43;;;;;;;1999.90;999.90;;;2.20;99.90;;;;;;4940235;28;20044;-82
2024/01/22 00:34:09;;;;;;;1999.90;999.90;;;2.20;99.90;;;;;;4941740;28;20044;-82
2024/01/22 00:36:34;;;;;;;1999.90;999.90;;;2.30;99.90;;;;;;4940712;28;20064;-82
2024/01/22 00:39:00;;;;;;;1999.90;999.90;;;2.30;99.90;;;;;;4937199;29;20068;-82
2024/01/22 00:41:25;;;;;;;1999.90;999.90;;;2.20;99.90;;;;;;4938302;29;20443;-83
2024/01/22 00:43:51;;;;;;;1999.90;999.90;;;2.10;99.90;;;;;;4938724;29;20438;-83
2024/01/22 00:46:17;;;;;;;1999.90;999.90;;;1.90;99.90;;;;;;4940539;29;20028;-82
2024/01/22 00:48:42;;;;;;;1999.90;999.90;;;1.90;99.90;;;;;;4944053;29;20044;-82
2024/01/22 00:51:08;;;;;;;1999.90;999.90;;;1.90;99.90;;;;;;4943974;29;20111;-84
2024/01/22 00:53:33;;;;;;;1999.90;999.90;;;2.00;99.90;;;;;;4949270;29;20048;-83
2024/01/22 00:55:59;;;;;;;1999.90;999.90;;;2.00;99.90;;;;;;4945957;29;20483;-83
2024/01/22 00:58:25;;;;;;;1999.90;999.90;;;1.90;99.90;;;;;;4949406;29;20042;-83
2024/01/22 01:00:50;;;;;;;1999.90;999.90;;;1.90;99.90;;;;;;4948103;28;20064;-83
2024/01/22 01:03:16;;;;;;;1999.90;999.90;;;1.90;99.90;;;;;;4945817;29;20115;-83
2024/01/22 01:05:41;;;;;;;1999.90;999.90;;;2.00;99.90;;;;;;4942591;28;20044;-82
2024/01/22 01:08:07;;;;;;;1999.90;999.90;;;1.90;99.90;;;;;;4939356;29;20040;-83
2024/01/22 01:10:32;;;;;;;1999.90;999.90;;;2.00;99.90;;;;;;4938591;29;20034;-83
2024/01/22 01:12:58;;;;;;;1999.90;999.90;;;2.10;99.90;;;;;;4939416;29;20040;-83
2024/01/22 01:15:24;;;;;;;1999.90;999.90;;;1.90;99.90;;;;;;4939557;29;20046;-82
2024/01/22 01:17:49;;;;;;;1999.90;999.90;;;1.80;99.90;;;;;;4954159;23;20025;-86
2024/01/22 01:20:15;;;;;;;1999.90;999.90;;;1.70;99.90;;;;;;4975890;28;20051;-83
2024/01/22 01:22:40;;;;;;;1999.90;999.90;;;1.70;99.90;;;;;;4976652;28;20453;-83
2024/01/22 01:25:06;;;;;;;1999.90;999.90;;;1.70;99.90;;;;;;4976692;28;20039;-84
2024/01/22 01:27:32;;;;;;;1999.90;999.90;;;1.60;99.90;;;;;;4975889;28;20118;-84
2024/01/22 01:29:57;;;;;;;1999.90;999.90;;;1.50;99.90;;;;;;4975846;28;20071;-83
2024/01/22 01:32:23;;;;;;;1999.90;999.90;;;1.50;99.90;;;;;;4975681;28;20507;-84
2024/01/22 01:34:48;;;;;;;1999.90;999.90;;;1.50;99.90;;;;;;4976988;28;20035;-84
2024/01/22 01:37:14;;;;;;;1999.90;999.90;;;1.50;99.90;;;;;;4975894;28;20107;-84
2024/01/22 01:39:39;;;;;;;1999.90;999.90;;;1.40;99.90;;;;;;4975692;28;20035;-84
2024/01/22 01:42:05;;;;;;;1999.90;999.90;;;1.40;99.90;;;;;;4975573;28;20043;-84
2024/01/22 01:44:51;;;;;;;1999.90;999.90;;;1.40;99.90;;;;;;4977018;28;20031;-84
2024/01/22 01:47:18;;;;;;;1999.90;999.90;;;1.50;99.90;;;;;;4977056;28;20115;-84
2024/01/22 01:49:46;;;;;;;1999.90;999.90;;;1.50;99.90;;;;;;4975670;28;20032;-84
2024/01/22 01:52:13;;;;;;;1999.90;999.90;;;1.50;99.90;;;;;;4975600;28;20090;-84
2024/01/22 01:54:40;;;;;;;1999.90;999.90;;;1.70;99.90;;;;;;4975614;28;20031;-84
2024/01/22 01:57:06;;;;;;;1999.90;999.90;;;1.70;99.90;;;;;;4977206;28;20524;-84
2024/01/22 01:59:33;;;;;;;1999.90;999.90;;;1.70;99.90;;;;;;4975442;28;20042;-84
2024/01/22 02:01:59;;;;;;;1999.90;999.90;;;1.80;99.90;;;;;;4975662;28;20043;-84
2024/01/22 02:04:24;;;;;;;1999.90;999.90;;;1.90;99.90;;;;;;4976332;28;20082;-84
2024/01/22 02:06:50;;;;;;;1999.90;999.90;;;1.90;99.90;;;;;;4975314;28;20094;-84
2024/01/22 02:09:15;;;;;;;1999.90;999.90;;;2.00;99.90;;;;;;4976678;28;20370;-84
2024/01/22 02:11:41;;;;;;;1999.90;999.90;;;1.90;99.90;;;;;;4975017;28;20043;-84
2024/01/22 02:14:07;;;;;;;1999.90;999.90;;;1.90;99.90;;;;;;4975170;28;20038;-83
2024/01/22 02:16:32;;;;;;;1999.90;999.90;;;1.90;99.90;;;;;;4976908;28;20042;-84
2024/01/22 02:18:58;;;;;;;1999.90;999.90;;;1.90;99.90;;;;;;4974529;28;20046;-85
2024/01/22 02:21:23;;;;;;;1999.90;999.90;;;2.00;99.90;;;;;;4974259;28;20042;-84
2024/01/22 02:23:49;;;;;;;1999.90;999.90;;;2.00;99.90;;;;;;4974939;28;20069;-85
2024/01/22 02:26:14;;;;;;;1999.90;999.90;;;1.90;99.90;;;;;;4976582;28;20156;-84
2024/01/22 02:28:40;;;;;;;1999.90;999.90;;;1.90;99.90;;;;;;4974901;28;20035;-84
2024/01/22 02:31:07;;;;;;;1999.90;999.90;;;1.90;99.90;;;;;;4974969;28;20054;-85
2024/01/22 02:33:32;;;;;;;1999.90;999.90;;;2.10;99.90;;;;;;4976487;28;20054;-85
2024/01/22 02:35:58;;;;;;;1999.90;999.90;;;2.10;99.90;;;;;;4974644;28;20051;-85
2024/01/22 02:38:23;;;;;;;1999.90;999.90;;;2.10;99.90;;;;;;4974897;28;20043;-85
2024/01/22 02:40:49;;;;;;;1999.90;999.90;;;2.00;99.90;;;;;;4975436;28;20035;-84
2024/01/22 02:43:14;;;;;;;1999.90;999.90;;;1.90;99.90;;;;;;4975929;28;20041;-85
2024/01/22 02:45:40;;;;;;;1999.90;999.90;;;1.80;99.90;;;;;;4977707;28;20035;-84
2024/01/22 02:48:06;;;;;;;1999.90;999.90;;;1.70;99.90;;;;;;4974499;28;20050;-83
2024/01/22 02:50:31;;;;;;;1999.90;999.90;;;1.50;99.90;;;;;;4974799;28;20035;-84
2024/01/22 02:52:57;;;;;;;1999.90;999.90;;;1.50;99.90;;;;;;4974467;28;20042;-84
2024/01/22 02:55:23;;;;;;;1999.90;999.90;;;1.40;99.90;;;;;;4974751;28;20034;-84
2024/01/22 02:57:51;;;;;;;1999.90;999.90;;;1.40;99.90;;;;;;4974585;28;20043;-86
2024/01/22 03:00:17;;;;;;;1999.90;999.90;;;1.30;99.90;;;;;;4974807;28;20516;-84
2024/01/22 03:02:43;;;;;;;1999.90;999.90;;;1.20;99.90;;;;;;4974568;28;20107;-84
2024/01/22 03:05:08;;;;;;;1999.90;999.90;;;1.10;99.90;;;;;;4976194;28;20036;-84
2024/01/22 03:07:34;;;;;;;1999.90;999.90;;;1.10;99.90;;;;;;4974501;28;20098;-84
2024/01/22 03:10:00;;;;;;;1999.90;999.90;;;1.00;99.90;;;;;;4975995;28;20046;-85
2024/01/22 03:12:25;;;;;;;1999.90;999.90;;;1.00;99.90;;;;;;4974518;28;20035;-84
2024/01/22 03:14:51;;;;;;;1999.90;999.90;;;1.00;99.90;;;;;;4974579;28;20511;-84
2024/01/22 03:17:16;;;;;;;1999.90;999.90;;;1.30;99.90;;;;;;4974392;28;20502;-84
2024/01/22 03:19:42;;;;;;;1999.90;999.90;;;1.50;99.90;;;;;;4974012;28;20043;-84
2024/01/22 03:22:08;;;;;;;1999.90;999.90;;;1.70;99.90;;;;;;4974103;28;20081;-84
2024/01/22 03:24:33;;;;;;;1999.90;999.90;;;1.80;99.90;;;;;;4974308;28;20038;-86
2024/01/22 03:26:59;;;;;;;1999.90;999.90;;;1.90;99.90;;;;;;4974558;28;20416;-85
2024/01/22 03:29:24;;;;;;;1999.90;999.90;;;2.00;99.90;;;;;;4974088;28;20094;-86
2024/01/22 03:31:50;;;;;;;1999.90;999.90;;;2.00;99.90;;;;;;4973939;28;20031;-84
2024/01/22 03:34:15;;;;;;;1999.90;999.90;;;2.10;99.90;;;;;;4977895;28;20035;-83
2024/01/22 03:36:41;;;;;;;1999.90;999.90;;;2.10;99.90;;;;;;4979202;28;20035;-83
2024/01/22 03:39:06;;;;;;;1999.90;999.90;;;2.30;99.90;;;;;;4978969;28;20082;-83
2024/01/22 03:41:33;;;;;;;1999.90;999.90;;;2.40;99.90;;;;;;4977538;28;20528;-83
2024/01/22 03:43:59;;;;;;;1999.90;999.90;;;2.40;99.90;;;;;;4977430;28;20039;-84
2024/01/22 03:46:24;;;;;;;1999.90;999.90;;;2.50;99.90;;;;;;4977409;28;20027;-85
2024/01/22 03:48:50;;;;;;;1999.90;999.90;;;2.60;99.90;;;;;;4977140;28;20046;-85
2024/01/22 03:51:16;;;;;;;1999.90;999.90;;;2.70;99.90;;;;;;4977190;28;20106;-86
2024/01/22 03:53:41;;;;;;;1999.90;999.90;;;2.80;99.90;;;;;;4977182;28;20040;-83
2024/01/22 03:56:07;;;;;;;1999.90;999.90;;;2.80;99.90;;;;;;4977377;28;20063;-83
2024/01/22 03:58:33;;;;;;;1999.90;999.90;;;3.00;99.90;;;;;;4976909;28;20077;-83
2024/01/22 04:00:59;;;;;;;1999.90;999.90;;;2.90;99.90;;;;;;4975731;28;20035;-83
2024/01/22 04:03:25;;;;;;;1999.90;999.90;;;3.00;99.90;;;;;;4976596;28;20035;-83
2024/01/22 04:05:50;;;;;;;1999.90;999.90;;;3.20;99.90;;;;;;4978906;28;20489;-84
2024/01/22 04:08:16;;;;;;;1999.90;999.90;;;3.20;99.90;;;;;;4977097;28;20044;-83
2024/01/22 04:10:42;;;;;;;1999.90;999.90;;;3.30;99.90;;;;;;4978751;28;20442;-83
2024/01/22 04:13:08;;;;;;;1999.90;999.90;;;3.30;99.90;;;;;;4977213;28;20035;-83
2024/01/22 04:15:34;;;;;;;1999.90;999.90;;;3.30;99.90;;;;;;4976997;28;20031;-83
2024/01/22 04:18:00;;;;;;;1999.90;999.90;;;3.30;99.90;;;;;;4976284;28;20043;-83
2024/01/22 04:20:25;;;;;;;1999.90;999.90;;;3.40;99.90;;;;;;4977096;28;20039;-83
2024/01/22 04:22:51;;;;;;;1999.90;999.90;;;3.40;99.90;;;;;;4976876;28;20382;-83
2024/01/22 04:25:17;;;;;;;1999.90;999.90;;;3.40;99.90;;;;;;4978243;28;20094;-83
2024/01/22 04:27:43;;;;;;;1999.90;999.90;;;3.50;99.90;;;;;;4976524;28;20098;-83
2024/01/22 04:30:09;;;;;;;1999.90;999.90;;;3.50;99.90;;;;;;4976542;28;20047;-83
2024/01/22 04:32:34;;;;;;;1999.90;999.90;;;3.50;99.90;;;;;;4976851;28;20031;-83
2024/01/22 04:35:00;;;;;;;1999.90;999.90;;;3.50;99.90;;;;;;4976702;28;20031;-83
2024/01/22 04:37:26;;;;;;;1999.90;999.90;;;3.50;99.90;;;;;;4978117;28;20039;-84
2024/01/22 04:39:52;;;;;;;1999.90;999.90;;;3.50;99.90;;;;;;4976681;28;20039;-83
2024/01/22 04:42:19;;;;;;;1999.90;999.90;;;3.50;99.90;;;;;;4977474;28;20035;-83
2024/01/22 04:44:45;;;;;;;1999.90;999.90;;;3.60;99.90;;;;;;4976097;28;20038;-83
2024/01/22 04:47:11;;;;;;;1999.90;999.90;;;3.60;99.90;;;;;;4976926;28;20046;-84
2024/01/22 04:49:36;;;;;;;1999.90;999.90;;;3.60;99.90;;;;;;4978240;28;20114;-84
2024/01/22 04:52:02;;;;;;;1999.90;999.90;;;3.60;99.90;;;;;;4976969;28;20513;-83
2024/01/22 04:54:28;;;;;;;1999.90;999.90;;;3.50;99.90;;;;;;4976350;28;20597;-83
2024/01/22 04:56:54;;;;;;;1999.90;999.90;;;3.50;99.90;;;;;;4976288;28;20046;-83
2024/01/22 04:59:20;;;;;;;1999.90;999.90;;;3.50;99.90;;;;;;4977668;28;20445;-83
2024/01/22 05:01:45;;;;;;;1999.90;999.90;;;3.60;99.90;;;;;;4976073;28;20039;-83
2024/01/22 05:04:11;;;;;;;1999.90;999.90;;;3.60;99.90;;;;;;4976294;28;20440;-84
2024/01/22 05:06:37;;;;;;;1999.90;999.90;;;3.70;99.90;;;;;;4977705;28;20046;-83
2024/01/22 05:09:04;;;;;;;1999.90;999.90;;;3.70;99.90;;;;;;4976014;28;20122;-83
2024/01/22 05:11:30;;;;;;;1999.90;999.90;;;3.60;99.90;;;;;;4975541;28;20036;-83
2024/01/22 05:13:56;;;;;;;1999.90;999.90;;;3.60;99.90;;;;;;4976354;28;20040;-83
2024/01/22 05:16:22;;;;;;;1999.90;999.90;;;3.70;99.90;;;;;;4976241;28;20110;-83
2024/01/22 05:18:50;;;;;;;1999.90;999.90;;;3.70;99.90;;;;;;4976852;28;20043;-83
2024/01/22 05:21:16;;;;;;;1999.90;999.90;;;3.70;99.90;;;;;;4977250;28;20560;-83
2024/01/22 05:23:42;;;;;;;1999.90;999.90;;;3.80;99.90;;;;;;4975999;28;20086;-83
2024/01/22 05:26:07;;;;;;;1999.90;999.90;;;3.80;99.90;;;;;;4976011;28;20035;-83
2024/01/22 05:28:34;;;;;;;1999.90;999.90;;;3.80;99.90;;;;;;4976963;28;20039;-86
2024/01/22 05:31:00;;;;;;;1999.90;999.90;;;3.90;99.90;;;;;;4976188;28;20031;-85
2024/01/22 05:33:27;;;;;;;1999.90;999.90;;;3.90;99.90;;;;;;4975667;28;20042;-85
2024/01/22 05:35:53;;;;;;;1999.90;999.90;;;3.90;99.90;;;;;;4977161;28;20118;-85
2024/01/22 05:38:19;;;;;;;1999.90;999.90;;;3.90;99.90;;;;;;4975594;28;20144;-85
2024/01/22 05:40:45;;;;;;;1999.90;999.90;;;3.90;99.90;;;;;;4975790;28;20084;-84
2024/01/22 05:43:10;;;;;;;1999.90;999.90;;;3.90;99.90;;;;;;4974389;28;20675;-85
2024/01/22 05:45:36;;;;;;;1999.90;999.90;;;4.00;99.90;;;;;;4957871;28;20118;-85
2024/01/22 05:48:02;;;;;;;1999.90;999.90;;;4.10;99.90;;;;;;4955748;28;20076;-85
2024/01/22 05:50:27;;;;;;;1999.90;999.90;;;4.00;99.90;;;;;;4957640;28;20031;-85
2024/01/22 05:52:53;;;;;;;1999.90;999.90;;;4.00;99.90;;;;;;4955887;28;20040;-86
2024/01/22 05:55:18;;;;;;;1999.90;999.90;;;4.00;99.90;;;;;;4956144;28;20107;-86
2024/01/22 05:57:44;;;;;;;1999.90;999.90;;;4.00;99.90;;;;;;4955249;28;20529;-86
2024/01/22 06:00:13;;;;;;;1999.90;999.90;;;4.00;99.90;;;;;;4955976;28;20032;-86
2024/01/22 06:02:42;;;;;;;1999.90;999.90;;;4.00;99.90;;;;;;4956014;28;20036;-85
2024/01/22 06:05:12;;;;;;;1999.90;999.90;;;4.00;99.90;;;;;;4975325;28;20070;-86
2024/01/22 06:07:38;;;;;;;1999.90;999.90;;;3.90;99.90;;;;;;4974890;28;20505;-86
2024/01/22 06:10:07;;;;;;;1999.90;999.90;;;4.00;99.90;;;;;;4976666;28;20043;-86
2024/01/22 06:12:34;;;;;;;1999.90;999.90;;;4.10;99.90;;;;;;4976295;28;20122;-86
2024/01/22 06:15:00;;;;;;;1999.90;999.90;;;4.10;99.90;;;;;;4975107;28;20062;-85
2024/01/22 06:17:30;;;;;;;1999.90;999.90;;;4.20;99.90;;;;;;4976264;28;20043;-86
2024/01/22 06:19:58;;;;;;;1999.90;999.90;;;4.10;99.90;;;;;;4975164;28;20039;-86
2024/01/22 06:22:24;;;;;;;1999.90;999.90;;;4.00;99.90;;;;;;4974826;28;20042;-85
2024/01/22 06:24:50;;;;;;;1999.90;999.90;;;4.10;99.90;;;;;;4974853;28;20039;-86
2024/01/22 06:27:16;;;;;;;1999.90;999.90;;;4.10;99.90;;;;;;4978897;28;20094;-87
2024/01/22 06:29:42;;;;;;;1999.90;999.90;;;4.20;99.90;;;;;;4975049;28;20027;-87
2024/01/22 06:32:08;;;;;;;1999.90;999.90;;;4.20;99.90;;;;;;4975138;28;20490;-88
2024/01/22 06:34:34;;;;;;;1999.90;999.90;;;4.30;99.90;;;;;;4975414;28;20375;-87
2024/01/22 06:37:00;;;;;;;1999.90;999.90;;;4.20;99.90;;;;;;4975237;28;20058;-84
2024/01/22 06:39:26;;;;;;;1999.90;999.90;;;4.20;99.90;;;;;;4976881;28;20498;-83
2024/01/22 06:41:51;;;;;;;1999.90;999.90;;;4.20;99.90;;;;;;4976056;28;20035;-83
2024/01/22 06:44:17;;;;;;;1999.90;999.90;;;4.30;99.90;;;;;;4978068;28;20117;-86
2024/01/22 06:46:42;;;;;;;1999.90;999.90;;;4.40;99.90;;;;;;4975302;28;20501;-86
2024/01/22 06:49:08;;;;;;;1999.90;999.90;;;4.40;99.90;;;;;;4976480;28;20038;-84
2024/01/22 06:51:33;;;;;;;1999.90;999.90;;;4.70;99.90;;;;;;4974821;28;20510;-85
2024/01/22 06:53:59;;;;;;;1999.90;999.90;;;4.50;99.90;;;;;;4975022;28;20138;-86
2024/01/22 06:56:25;;;;;;;1999.90;999.90;;;4.50;99.90;;;;;;4975181;28;20039;-85
2024/01/22 06:58:50;;;;;;;1999.90;999.90;;;4.50;99.90;;;;;;4974615;28;20043;-85
2024/01/22 07:01:16;;;;;;;1999.90;999.90;;;4.50;99.90;;;;;;4975842;28;20031;-85
2024/01/22 07:03:42;;;;;;;1999.90;999.90;;;4.50;99.90;;;;;;4975248;28;20529;-86
2024/01/22 07:06:07;;;;;;;1999.90;999.90;;;4.50;99.90;;;;;;4976519;28;20035;-86
2024/01/22 07:08:33;;;;;;;1999.90;999.90;;;4.60;99.90;;;;;;4976063;28;20043;-86
2024/01/22 07:10:58;;;;;;;1999.90;999.90;;;4.60;99.90;;;;;;4978658;28;20043;-84
2024/01/22 07:13:24;;;;;;;1999.90;999.90;;;4.60;99.90;;;;;;4978476;28;20094;-85
2024/01/22 07:15:50;;;;;;;1999.90;999.90;;;4.70;99.90;;;;;;4978120;28;20040;-85
2024/01/22 07:18:16;;;;;;;1999.90;999.90;;;4.90;99.90;;;;;;4992309;23;20098;-80
2024/01/22 07:20:41;;;;;;;1999.90;999.90;;;4.80;99.90;;;;;;4978816;28;20485;-80
2024/01/22 07:23:07;;;;;;;1999.90;999.90;;;4.80;99.90;;;;;;4980548;28;20086;-80
2024/01/22 07:25:36;;;;;;;1999.90;999.90;;;4.80;99.90;;;;;;4979861;28;20046;-80
2024/01/22 07:28:05;;;;;;;1999.90;999.90;;;4.80;99.90;;;;;;4983804;28;20031;-80
2024/01/22 07:30:30;;;;;;;1999.90;999.90;;;4.80;99.90;;;;;;4990313;28;20046;-81
2024/01/22 07:32:57;;;;;;;1999.90;999.90;;;4.80;99.90;;;;;;4989145;28;20524;-81
2024/01/22 07:35:24;;;;;;;1999.90;999.90;;;4.80;99.90;;;;;;4991963;28;20042;-81
2024/01/22 07:37:49;;;;;;;1999.90;999.90;;;5.00;99.90;;;;;;4989635;28;20040;-81
2024/01/22 07:40:15;;;;;;;1999.90;999.90;;;5.00;99.90;;;;;;4990253;28;20035;-82
2024/01/22 07:42:41;;;;;;;1999.90;999.90;;;5.10;99.90;;;;;;4990300;28;20074;-81
2024/01/22 07:45:09;;;;;;;1999.90;999.90;;;5.10;99.90;;;;;;4993815;28;20043;-84
2024/01/22 07:47:35;;;;;;;1999.90;999.90;;;5.00;99.90;;;;;;4991763;28;20036;-83
2024/01/22 07:50:05;;;;;;;1999.90;999.90;;;5.10;99.90;;;;;;4987024;28;20112;-83
2024/01/22 07:52:32;;;;;;;1999.90;999.90;;;5.20;99.90;;;;;;4985448;28;20039;-84
2024/01/22 07:54:57;;;;;;;1999.90;999.90;;;5.10;99.90;;;;;;4985272;28;20475;-83
2024/01/22 07:57:23;;;;;;;1999.90;999.90;;;5.20;99.90;;;;;;4988205;28;20070;-84
2024/01/22 07:59:48;;;;;;;1999.90;999.90;;;5.40;99.90;;;;;;4987714;28;20035;-83
2024/01/22 08:02:14;;;;;;;1999.90;999.90;;;5.50;99.90;;;;;;4986246;28;20043;-84
2024/01/22 08:04:40;;;;;;;1999.90;999.90;;;5.60;99.90;;;;;;4986016;28;20038;-83
2024/01/22 08:07:06;;;;;;;1999.90;999.90;;;5.60;99.90;;;;;;4985368;28;20031;-84
2024/01/22 08:09:33;;;;;;;1999.90;999.90;;;5.70;99.90;;;;;;4984988;28;20031;-83
2024/01/22 08:11:58;;;;;;;1999.90;999.90;;;5.80;99.90;;;;;;4986787;28;20043;-83
2024/01/22 08:14:24;;;;;;;1999.90;999.90;;;5.80;99.90;;;;;;4984676;28;20035;-83
2024/01/22 08:16:50;;;;;;;1999.90;999.90;;;5.80;99.90;;;;;;4987232;28;20118;-83
2024/01/22 08:19:16;;;;;;;1999.90;999.90;;;5.90;99.90;;;;;;4983631;28;20141;-83
2024/01/22 08:21:42;;;;;;;1999.90;999.90;;;6.10;99.90;;;;;;4986792;28;20020;-83
2024/01/22 08:24:07;;;;;;;1999.90;999.90;;;6.10;99.90;;;;;;4985026;28;20042;-83
2024/01/22 08:26:33;;;;;;;1999.90;999.90;;;6.00;99.90;;;;;;4984682;28;20031;-83
2024/01/22 08:28:58;;;;;;;1999.90;999.90;;;6.00;99.90;;;;;;4986684;28;20035;-84
2024/01/22 08:31:24;;;;;;;1999.90;999.90;;;5.90;99.90;;;;;;4987574;28;20043;-83
2024/01/22 08:33:50;;;;;;;1999.90;999.90;;;5.90;99.90;;;;;;4985973;28;20558;-84
2024/01/22 08:36:16;;;;;;;1999.90;999.90;;;5.90;99.90;;;;;;4987264;28;20485;-84
2024/01/22 08:38:41;;;;;;;1999.90;999.90;;;5.90;99.90;;;;;;4986305;28;20051;-84
2024/01/22 08:41:08;;;;;;;1999.90;999.90;;;6.00;99.90;;;;;;4979066;28;20032;-83
2024/01/22 08:43:34;;;;;;;1999.90;999.90;;;6.00;99.90;;;;;;4970538;28;20042;-84
2024/01/22 08:46:00;;;;;;;1999.90;999.90;;;6.10;99.90;;;;;;4963213;28;20056;-83
2024/01/22 08:48:26;;;;;;;1999.90;999.90;;;6.20;99.90;;;;;;4962560;28;20515;-84
2024/01/22 08:50:51;;;;;;;1999.90;999.90;;;6.20;99.90;;;;;;4965402;28;20047;-85
2024/01/22 08:53:17;;;;;;;1999.90;999.90;;;6.30;99.90;;;;;;4965724;28;20118;-84
2024/01/22 08:55:43;;;;;;;1999.90;999.90;;;6.30;99.90;;;;;;4966773;28;20060;-84
2024/01/22 08:58:09;;;;;;;1999.90;999.90;;;6.40;99.90;;;;;;4966487;28;20051;-88
2024/01/22 09:00:35;;;;;;;1999.90;999.90;;;6.50;99.90;;;;;;4964898;28;20040;-87
2024/01/22 09:03:01;;;;;;;1999.90;999.90;;;6.60;99.90;;;;;;4965598;28;20042;-85
2024/01/22 09:05:27;;;;;;;1999.90;999.90;;;6.60;99.90;;;;;;4970793;28;20042;-85
2024/01/22 09:07:52;;;;;;;1999.90;999.90;;;6.70;99.90;;;;;;4985625;28;20111;-85
2024/01/22 09:10:18;;;;;;;1999.90;999.90;;;6.80;99.90;;;;;;4980631;28;20028;-84
2024/01/22 09:12:45;;;;;;;1999.90;999.90;;;7.00;99.90;;;;;;4982922;28;20058;-85
2024/01/22 09:15:11;;;;;;;1999.90;999.90;;;7.00;99.90;;;;;;4970829;28;20039;-84
2024/01/22 09:17:37;;;;;;;1999.90;999.90;;;7.10;99.90;;;;;;4964527;28;20042;-85
2024/01/22 09:20:04;;;;;;;1999.90;999.90;;;7.10;99.90;;;;;;4964057;28;20044;-84
2024/01/22 09:22:30;;;;;;;1999.90;999.90;;;7.10;99.90;;;;;;4972449;28;20035;-85
2024/01/22 09:24:55;;;;;;;1999.90;999.90;;;7.10;99.90;;;;;;4983523;28;20027;-85
2024/01/22 09:27:21;;;;;;;1999.90;999.90;;;7.10;99.90;;;;;;4981002;28;20043;-85
2024/01/22 09:29:47;;;;;;;1999.90;999.90;;;7.20;99.90;;;;;;4980809;28;20107;-87
2024/01/22 09:32:13;;;;;;;1999.90;999.90;;;7.20;99.90;;;;;;4961728;28;20036;-86
2024/01/22 09:34:39;;;;;;;1999.90;999.90;;;7.10;99.90;;;;;;4965940;28;20043;-86
2024/01/22 09:37:08;;;;;;;1999.90;999.90;;;7.10;99.90;;;;;;4964716;28;20046;-86
2024/01/22 09:39:33;;;;;;;1999.90;999.90;;;7.10;99.90;;;;;;4982602;28;20122;-86
2024/01/22 09:41:59;;;;;;;1999.90;999.90;;;7.10;99.90;;;;;;4979885;28;20433;-86
2024/01/22 09:44:26;;;;;;;1999.90;999.90;;;7.10;99.90;;;;;;4974802;28;20043;-87
2024/01/22 09:46:52;;;;;;;1999.90;999.90;;;7.20;99.90;;;;;;4970719;28;20089;-86
2024/01/22 09:49:18;;;;;;;1999.90;999.90;;;7.20;99.90;;;;;;4967734;28;20501;-86
2024/01/22 09:51:44;;;;;;;1999.90;999.90;;;7.40;99.90;;;;;;4976814;28;20039;-86
2024/01/22 09:54:20;;;;;;;1999.90;999.90;;;7.40;99.90;;;;;;4982339;28;20042;-86
2024/01/22 09:56:53;;;;;;;1999.90;999.90;;;7.50;99.90;;;;;;4980590;28;20038;-86
2024/01/22 09:59:21;;;;;;;1999.90;999.90;;;7.60;99.90;;;;;;4987646;28;20027;-86
2024/01/22 10:01:48;;;;;;;1999.90;999.90;;;7.50;99.90;;;;;;4970761;28;20042;-86
2024/01/22 10:04:15;;;;;;;1999.90;999.90;;;7.50;99.90;;;;;;4989409;28;20031;-86
2024/01/22 10:06:41;;;;;;;1999.90;999.90;;;7.50;99.90;;;;;;4990446;28;20572;-86
2024/01/22 10:09:07;;;;;;;1999.90;999.90;;;7.40;99.90;;;;;;4992910;28;20046;-89
2024/01/22 10:11:32;;;;;;;1999.90;999.90;;;7.40;99.90;;;;;;4991170;28;20040;-87
2024/01/22 10:13:58;;;;;;;1999.90;999.90;;;7.60;99.90;;;;;;4958087;28;20051;-85
2024/01/22 10:16:26;;;;;;;1999.90;999.90;;;7.70;99.90;;;;;;4957376;28;20140;-85
2024/01/22 10:18:59;;;;;;;1999.90;999.90;;;7.80;99.90;;;;;;4956175;28;20058;-86
2024/01/22 10:21:26;;;;;;;1999.90;999.90;;;7.90;99.90;;;;;;4961256;28;20039;-85
2024/01/22 10:24:03;;;;;;;1999.90;999.90;;;7.90;99.90;;;;;;4956497;28;20035;-86
2024/01/22 10:26:30;;;;;;;1999.90;999.90;;;8.10;99.90;;;;;;4958899;28;20024;-86
2024/01/22 10:29:17;;;;;;;1999.90;999.90;;;8.10;99.90;;;;;;4958076;28;20039;-85
2024/01/22 10:31:53;;;;;;;1999.90;999.90;;;8.20;99.90;;;;;;4971287;28;20106;-86
2024/01/22 10:34:18;;;;;;;1999.90;999.90;;;8.30;99.90;;;;;;4975558;28;20811;-85
2024/01/22 10:36:44;;;;;;;1999.90;999.90;;;8.50;99.90;;;;;;4976631;28;20035;-85
2024/01/22 10:39:09;;;;;;;1999.90;999.90;;;8.60;99.90;;;;;;4973866;28;20073;-85
2024/01/22 10:41:35;;;;;;;1999.90;999.90;;;8.70;99.90;;;;;;4978816;28;20513;-86
2024/01/22 10:44:01;;;;;;;1999.90;999.90;;;8.80;99.90;;;;;;4975783;28;20031;-86
2024/01/22 10:46:27;;;;;;;1999.90;999.90;;;8.90;99.90;;;;;;4965549;28;20110;-86
2024/01/22 10:48:55;;;;;;;1999.90;999.90;;;8.90;99.90;;;;;;4972237;28;20046;-86
2024/01/22 10:51:23;;;;;;;1999.90;999.90;;;8.90;99.90;;;;;;4974757;28;20039;-86
2024/01/22 10:53:49;;;;;;;1999.90;999.90;;;8.90;99.90;;;;;;4981416;28;20035;-86
2024/01/22 10:56:18;;;;;;;1999.90;999.90;;;8.90;99.90;;;;;;4959356;28;20931;-86
2024/01/22 10:58:45;;;;;;;1999.90;999.90;;;8.90;99.90;;;;;;4955712;28;20031;-86
2024/01/22 11:01:15;;;;;;;1999.90;999.90;;;8.90;99.90;;;;;;4956537;28;20042;-86
2024/01/22 11:03:52;;;;;;;1999.90;999.90;;;8.90;99.90;;;;;;4973708;28;20524;-86
2024/01/22 11:06:21;;;;;;;1999.90;999.90;;;8.90;99.90;;;;;;4970400;28;20532;-85
2024/01/22 11:08:55;;;;;;;1999.90;999.90;;;9.00;99.90;;;;;;4961142;28;20048;-87
2024/01/22 11:11:24;;;;;;;1999.90;999.90;;;8.90;99.90;;;;;;4956942;28;20031;-86
2024/01/22 11:13:52;;;;;;;1999.90;999.90;;;8.90;99.90;;;;;;4957554;28;20043;-86
2024/01/22 11:16:19;;;;;;;1999.90;999.90;;;8.90;99.90;;;;;;4958209;28;20039;-86
2024/01/22 11:18:55;;;;;;;1999.90;999.90;;;8.80;99.90;;;;;;4972499;28;20052;-86
2024/01/22 11:21:21;;;;;;;1999.90;999.90;;;8.80;99.90;;;;;;4972140;28;20039;-85
2024/01/22 11:24:16;;;;;;;1999.90;999.90;;;8.70;99.90;;;;;;4964735;28;20039;-86
2024/01/22 11:27:01;;;;;;;1999.90;999.90;;;8.70;99.90;;;;;;4958307;28;20529;-86
2024/01/22 11:29:28;;;;;;;1999.90;999.90;;;8.80;99.90;;;;;;4966409;28;20118;-86
2024/01/22 11:31:54;;;;;;;1999.90;999.90;;;8.80;99.90;;;;;;4964072;28;20032;-83
2024/01/22 11:34:38;;;;;;;1999.90;999.90;;;8.80;99.90;;;;;;4960433;28;20032;-83
2024/01/22 11:37:04;;;;;;;1999.90;999.90;;;8.80;99.90;;;;;;4969096;28;20039;-83
2024/01/22 11:39:33;;;;;;;1999.90;999.90;;;8.80;99.90;;;;;;4971600;28;20043;-86
2024/01/22 11:41:59;;;;;;;1999.90;999.90;;;8.90;99.90;;;;;;4974925;28;20031;-86
2024/01/22 11:44:27;;;;;;;1999.90;999.90;;;8.90;99.90;;;;;;4979225;28;20457;-85
2024/01/22 11:47:13;;;;;;;1999.90;999.90;;;8.90;99.90;;;;;;4967152;28;20066;-85
2024/01/22 11:49:39;;;;;;;1999.90;999.90;;;8.90;99.90;;;;;;4964461;28;20099;-85
2024/01/22 11:52:20;;;;;;;1999.90;999.90;;;8.90;99.90;;;;;;4970698;28;20039;-85
2024/01/22 11:55:03;;;;;;;1999.90;999.90;;;8.90;99.90;;;;;;4981934;28;20493;-85
2024/01/22 11:57:37;;;;;;;1999.90;999.90;;;8.90;99.90;;;;;;4968998;28;20096;-85
2024/01/22 12:00:11;;;;;;;1999.90;999.90;;;8.90;99.90;;;;;;4982278;28;20031;-85
2024/01/22 12:02:38;;;;;;;1999.90;999.90;;;8.90;99.90;;;;;;4969482;28;20087;-85
2024/01/22 12:05:12;;;;;;;1999.90;999.90;;;8.80;99.90;;;;;;4975091;28;20109;-85